地図

経路データ

SID SEASON NUMBER BASIN SUBBASIN NAME ISO_TIME NATURE LAT LON WMO_WIND WMO_PRES WMO_AGENCY TRACK_TYPE DIST2LAND LANDFALL IFLAG USA_AGENCY USA_ATCF_ID USA_LAT USA_LON USA_RECORD USA_STATUS USA_WIND USA_PRES USA_SSHS USA_R34_NE USA_R34_SE USA_R34_SW USA_R34_NW USA_R50_NE USA_R50_SE USA_R50_SW USA_R50_NW USA_R64_NE USA_R64_SE USA_R64_SW USA_R64_NW USA_POCI USA_ROCI USA_RMW USA_EYE TOKYO_LAT TOKYO_LON TOKYO_GRADE TOKYO_WIND TOKYO_PRES TOKYO_R50_DIR TOKYO_R50_LONG TOKYO_R50_SHORT TOKYO_R30_DIR TOKYO_R30_LONG TOKYO_R30_SHORT TOKYO_LAND CMA_LAT CMA_LON CMA_CAT CMA_WIND CMA_PRES HKO_LAT HKO_LON HKO_CAT HKO_WIND HKO_PRES NEWDELHI_LAT NEWDELHI_LON NEWDELHI_GRADE NEWDELHI_WIND NEWDELHI_PRES NEWDELHI_CI NEWDELHI_DP NEWDELHI_POCI REUNION_LAT REUNION_LON REUNION_TYPE REUNION_WIND REUNION_PRES REUNION_TNUM REUNION_CI REUNION_RMW REUNION_R34_NE REUNION_R34_SE REUNION_R34_SW REUNION_R34_NW REUNION_R50_NE REUNION_R50_SE REUNION_R50_SW REUNION_R50_NW REUNION_R64_NE REUNION_R64_SE REUNION_R64_SW REUNION_R64_NW BOM_LAT BOM_LON BOM_TYPE BOM_WIND BOM_PRES BOM_TNUM BOM_CI BOM_RMW BOM_R34_NE BOM_R34_SE BOM_R34_SW BOM_R34_NW BOM_R50_NE BOM_R50_SE BOM_R50_SW BOM_R50_NW BOM_R64_NE BOM_R64_SE BOM_R64_SW BOM_R64_NW BOM_ROCI BOM_POCI BOM_EYE BOM_POS_METHOD BOM_PRES_METHOD NADI_LAT NADI_LON NADI_CAT NADI_WIND NADI_PRES WELLINGTON_LAT WELLINGTON_LON WELLINGTON_WIND WELLINGTON_PRES DS824_LAT DS824_LON DS824_STAGE DS824_WIND DS824_PRES TD9636_LAT TD9636_LON TD9636_STAGE TD9636_WIND TD9636_PRES TD9635_LAT TD9635_LON TD9635_WIND TD9635_PRES TD9635_ROCI NEUMANN_LAT NEUMANN_LON NEUMANN_CLASS NEUMANN_WIND NEUMANN_PRES MLC_LAT MLC_LON MLC_CLASS MLC_WIND MLC_PRES USA_GUST BOM_GUST BOM_GUST_PER REUNION_GUST REUNION_GUST_PER USA_SEAHGT USA_SEARAD_NE USA_SEARAD_SE USA_SEARAD_SW USA_SEARAD_NW STORM_SPEED STORM_DIR
1960182N20089 1960 33 NI BB NOT_NAMED 1960-06-29 18:00:00 TS 19.9000 88.9000 main 190 190 O________O____ jtwc_io IO031960 19.9000 88.9000 -1 19.9000 88.9000 TC 3 270
1960182N20089 1960 33 NI BB NOT_NAMED 1960-06-29 21:00:00 TS 19.9001 88.7200 main 191 189 P________P____ IO031960 19.9001 88.7200 -1 19.9001 88.7200 TC 3 270
1960182N20089 1960 33 NI BB NOT_NAMED 1960-06-30 00:00:00 TS 19.9000 88.6000 main 189 189 O________O____ jtwc_io IO031960 19.9000 88.6000 -1 19.9000 88.6000 TC 25 1 270
1960182N20089 1960 33 NI BB NOT_NAMED 1960-06-30 03:00:00 TS 19.9000 88.5800 main 189 189 P________PO___ IO031960 19.9000 88.5775 -1 19.9000 88.5775 TC 25 19.9000 88.6000 1 0 0
1960182N20089 1960 33 NI BB NOT_NAMED 1960-06-30 06:00:00 TS 19.9003 88.5969 main 189 189 O________OP___ jtwc_io IO031960 19.9000 88.6000 -1 19.9000 88.6000 TC 25 19.9016 88.5844 1 0 0
1960182N20089 1960 33 NI BB NOT_NAMED 1960-06-30 09:00:00 TS 19.9007 88.5932 main 189 189 P________PP___ IO031960 19.9000 88.6000 -1 19.9000 88.6000 TC 25 19.9026 88.5750 1 0 0
1960182N20089 1960 33 NI BB NOT_NAMED 1960-06-30 12:00:00 TS 19.9007 88.5927 main 189 189 O________OP___ jtwc_io IO031960 19.9000 88.6000 -1 19.9000 88.6000 TC 25 19.9022 88.5781 1 0 0
1960182N20089 1960 33 NI BB NOT_NAMED 1960-06-30 15:00:00 TS 19.9000 88.5950 main 189 189 P________PO___ IO031960 19.9000 88.5925 -1 19.9000 88.5925 TC 25 19.9000 88.6000 1 0 0
1960182N20089 1960 33 NI BB NOT_NAMED 1960-06-30 18:00:00 TS 19.8986 88.6135 main 189 189 O________OP___ jtwc_io IO031960 19.9000 88.6000 -1 19.9000 88.6000 TC 25 19.8958 88.6406 1 1 92
1960182N20089 1960 33 NI BB NOT_NAMED 1960-06-30 21:00:00 TS 19.8974 88.6733 main 191 191 P________PP___ IO031960 19.9000 88.6725 -1 19.9000 88.6725 TC 25 19.8923 88.6749 1 1 91
1960182N20089 1960 33 NI BB NOT_NAMED 1960-07-01 00:00:00 TS 19.8975 88.6906 main 191 189 O________OP___ jtwc_io IO031960 19.9000 88.7000 -1 19.9000 88.7000 TC 25 19.8926 88.6718 1 1 268
1960182N20089 1960 33 NI BB NOT_NAMED 1960-07-01 03:00:00 TS 19.8950 88.5966 main 189 171 P________PO___ IO031960 19.8925 88.5950 -1 19.8925 88.5950 TC 25 19.9000 88.6000 1 3 272
1960182N20089 1960 33 NI BB NOT_NAMED 1960-07-01 06:00:00 TS 19.9046 88.4073 main 171 153 O________OP___ jtwc_io IO031960 19.9000 88.4000 -1 19.9000 88.4000 TC 25 19.9139 88.4219 1 4 277
1960182N20089 1960 33 NI BB NOT_NAMED 1960-07-01 09:00:00 TS 19.9451 88.1684 main 153 122 P________PP___ IO031960 19.9500 88.1651 -1 19.9500 88.1651 TC 25 19.9353 88.1750 1 5 280
1960182N20089 1960 33 NI BB NOT_NAMED 1960-07-01 12:00:00 TS 19.9880 87.8969 main 122 99 O________OP___ jtwc_io IO031960 20.0000 87.9000 -1 20.0000 87.9000 TC 25 19.9639 87.8906 1 5 276
1960182N20089 1960 33 NI BB NOT_NAMED 1960-07-01 15:00:00 TS 20.0000 87.6333 main 99 80 P________PO___ IO031960 20.0000 87.6499 -1 20.0000 87.6499 TC 25 20.0000 87.6000 1 5 271
1960182N20089 1960 33 NI BB NOT_NAMED 1960-07-01 18:00:00 TS 19.9991 87.4006 main 80 62 O________OP___ jtwc_io IO031960 20.0000 87.4000 -1 20.0000 87.4000 TC 25 19.9973 87.4017 1 4 273
1960182N20089 1960 33 NI BB NOT_NAMED 1960-07-01 21:00:00 TS 20.0211 87.1801 main 62 30 P________PP___ IO031960 20.0274 87.1724 -1 20.0274 87.1724 TC 25 20.0087 87.1957 1 5 281
1960182N20089 1960 33 NI BB NOT_NAMED 1960-07-02 00:00:00 TS 20.0886 86.9139 main 30 10 O________OP___ jtwc_io IO031960 20.1000 86.9000 -1 20.1000 86.9000 TC 25 20.0658 86.9418 1 6 288
1960182N20089 1960 33 NI BB NOT_NAMED 1960-07-02 03:00:00 TS 20.2032 86.5681 main 10 0 P________PO___ IO031960 20.2048 86.5521 -1 20.2048 86.5521 TC 25 20.2000 86.6000 1 8 293
1960182N20089 1960 33 NI BB NOT_NAMED 1960-07-02 06:00:00 TS 20.4142 86.1064 main 0 0 O________OP___ jtwc_io IO031960 20.4000 86.1000 -1 20.4000 86.1000 TC 25 20.4425 86.1192 1 11 299
1960182N20089 1960 33 NI BB NOT_NAMED 1960-07-02 09:00:00 TS 20.7337 85.5363 main 0 0 P________PP___ IO031960 20.7201 85.5302 -1 20.7201 85.5302 TC 25 20.7609 85.5485 1 13 302
1960182N20089 1960 33 NI BB NOT_NAMED 1960-07-02 12:00:00 TS 21.1079 84.9094 main 0 0 O________OP___ jtwc_io IO031960 21.1000 84.9000 -1 21.1000 84.9000 TC 25 21.1236 84.9283 1 14 302
1960182N20089 1960 33 NI BB NOT_NAMED 1960-07-02 15:00:00 TS 21.4666 84.2949 main 0 0 P________PO___ IO031960 21.4499 84.2923 -1 21.4499 84.2923 TC 25 21.5000 84.3000 1 13 303
1960182N20089 1960 33 NI BB NOT_NAMED 1960-07-02 18:00:00 TS 21.8261 83.6988 main 0 0 O________OP___ jtwc_io IO031960 21.8000 83.7000 -1 21.8000 83.7000 TC 25 21.8654 83.6970 1 13 303
1960182N20089 1960 33 NI BB NOT_NAMED 1960-07-02 21:00:00 TS 22.1793 83.1312 main 0 0 P________PP___ IO031960 22.1503 83.1405 -1 22.1503 83.1405 TC 25 22.2180 83.1187 1 13 304
1960182N20089 1960 33 NI BB NOT_NAMED 1960-07-03 00:00:00 TS 22.5309 82.5780 main 0 0 O________OP___ jtwc_io IO031960 22.5000 82.6000 -1 22.5000 82.6000 TC 25 22.5617 82.5561 1 13 305
1960182N20089 1960 33 NI BB NOT_NAMED 1960-07-03 03:00:00 NR 22.9000 82.0000 main 0 __________O___ IO031960 -1 TC 22.9000 82.0000 1 13 305

IBTrACS Databaseについて

本データベースは、米国NOAAが公開する1842年以降の世界の熱帯低気圧のベストトラックデータアーカイブInternational Best Track Archive for Climate Stewardship (IBTrACS)を、ウェブで閲覧しやすい形式に変換したものです。

最終更新日:2021-10-08